createdAt,value
2022-10-22T00:00:59.616Z,29.30
2022-10-22T00:03:36.856Z,29.27
2022-10-22T00:06:05.497Z,29.23
2022-10-22T00:08:33.570Z,29.16
2022-10-22T00:11:09.717Z,29.17
2022-10-22T00:13:37.860Z,29.24
2022-10-22T00:16:06.345Z,29.21
2022-10-22T00:18:35.712Z,29.25
2022-10-22T00:21:04.050Z,29.18
2022-10-22T00:23:31.974Z,29.08
2022-10-22T00:26:00.039Z,29.02
2022-10-22T00:28:27.938Z,29.05
2022-10-22T00:30:57.734Z,29.04
2022-10-22T00:33:27.151Z,29.05
2022-10-22T00:35:55.224Z,29.05
2022-10-22T00:38:23.320Z,29.07
2022-10-22T00:40:51.766Z,29.02
2022-10-22T00:43:20.593Z,29.00
2022-10-22T00:45:48.423Z,28.99
2022-10-22T00:48:23.602Z,28.97
2022-10-22T00:50:59.955Z,28.98
2022-10-22T00:53:44.674Z,29.00
2022-10-22T00:56:12.853Z,28.95
2022-10-22T00:58:52.585Z,28.86
2022-10-22T01:01:25.088Z,28.73
2022-10-22T01:03:53.879Z,28.67
2022-10-22T01:06:26.223Z,28.67
2022-10-22T01:09:09.545Z,28.69
2022-10-22T01:11:49.966Z,28.84
2022-10-22T01:14:21.330Z,28.88
2022-10-22T01:17:08.364Z,28.91
2022-10-22T01:19:48.884Z,28.93
2022-10-22T01:22:23.940Z,29.02
2022-10-22T01:25:10.825Z,29.12
2022-10-22T01:28:00.044Z,29.16
2022-10-22T01:30:28.414Z,29.16
2022-10-22T01:33:02.279Z,29.14
2022-10-22T01:35:36.186Z,29.13
2022-10-22T01:38:09.076Z,29.10
2022-10-22T01:40:38.358Z,29.15
2022-10-22T01:43:08.585Z,29.16
2022-10-22T01:45:41.438Z,29.15
2022-10-22T01:48:47.084Z,29.22
2022-10-22T01:51:15.252Z,29.26
2022-10-22T01:54:32.543Z,29.14
2022-10-22T01:57:42.928Z,29.19
2022-10-22T02:00:14.785Z,29.00
2022-10-22T02:02:55.341Z,29.00
2022-10-22T02:05:28.666Z,29.04
2022-10-22T02:08:02.472Z,29.11
2022-10-22T02:10:30.942Z,29.11
2022-10-22T02:13:01.490Z,29.04
2022-10-22T02:15:33.731Z,29.01
2022-10-22T02:18:03.356Z,29.07
2022-10-22T02:20:37.567Z,29.12
2022-10-22T02:23:05.829Z,29.12
2022-10-22T02:25:41.310Z,29.15
2022-10-22T02:28:32.586Z,29.15
2022-10-22T02:31:13.737Z,29.19
2022-10-22T02:33:48.884Z,29.18
2022-10-22T02:36:18.411Z,29.18
2022-10-22T02:38:49.254Z,29.05
2022-10-22T02:41:18.943Z,29.14
2022-10-22T02:43:53.847Z,29.15
2022-10-22T02:46:22.252Z,28.85
2022-10-22T02:48:50.309Z,28.66
2022-10-22T02:51:18.263Z,28.59
2022-10-22T02:53:46.249Z,28.61
2022-10-22T02:56:14.702Z,28.62
2022-10-22T02:58:42.679Z,28.63
2022-10-22T03:01:13.765Z,28.65
2022-10-22T03:03:44.138Z,28.61
2022-10-22T03:06:12.746Z,28.52
2022-10-22T03:08:41.255Z,28.67
2022-10-22T03:11:09.242Z,28.74
2022-10-22T03:13:37.520Z,28.73
2022-10-22T03:16:06.431Z,28.61
2022-10-22T03:18:34.773Z,28.63
2022-10-22T03:21:14.694Z,28.60
2022-10-22T03:23:43.735Z,28.60
2022-10-22T03:26:14.199Z,28.49
2022-10-22T03:28:42.899Z,28.46
2022-10-22T03:31:11.018Z,28.43
2022-10-22T03:33:39.011Z,28.38
2022-10-22T03:36:08.490Z,28.39
2022-10-22T03:38:41.159Z,28.41
2022-10-22T03:41:10.347Z,28.40
2022-10-22T03:43:39.231Z,28.37
2022-10-22T03:46:07.848Z,28.39
2022-10-22T03:48:35.854Z,28.41
2022-10-22T03:51:04.826Z,28.42
2022-10-22T03:53:33.068Z,28.41
2022-10-22T03:56:00.933Z,28.40
2022-10-22T03:58:28.894Z,28.39
2022-10-22T04:00:56.864Z,28.39
2022-10-22T04:03:25.154Z,28.43
2022-10-22T04:05:53.312Z,28.43
2022-10-22T04:08:21.287Z,28.44
2022-10-22T04:10:52.406Z,28.42
2022-10-22T04:13:20.389Z,28.37
2022-10-22T04:15:48.281Z,28.36
2022-10-22T04:18:16.514Z,28.35
2022-10-22T04:20:44.670Z,28.26
2022-10-22T04:23:13.597Z,28.27
2022-10-22T04:25:41.455Z,28.21
2022-10-22T04:28:10.811Z,28.19
2022-10-22T04:30:38.725Z,28.19
2022-10-22T04:33:06.721Z,28.20
2022-10-22T04:35:38.823Z,28.14
2022-10-22T04:38:06.793Z,28.09
2022-10-22T04:40:34.769Z,28.07
2022-10-22T04:43:02.730Z,28.06
2022-10-22T04:45:31.071Z,28.09
2022-10-22T04:47:58.916Z,28.10
2022-10-22T04:50:27.003Z,28.08
2022-10-22T04:52:55.034Z,28.14
2022-10-22T04:55:23.025Z,28.18
2022-10-22T04:57:51.014Z,28.31
2022-10-22T05:00:19.115Z,28.35
2022-10-22T05:02:51.139Z,28.30
2022-10-22T05:05:19.554Z,28.22
2022-10-22T05:07:47.530Z,28.19
2022-10-22T05:10:15.507Z,28.23
2022-10-22T05:12:43.461Z,28.26
2022-10-22T05:15:11.544Z,28.31
2022-10-22T05:17:39.762Z,28.32
2022-10-22T05:20:09.331Z,28.32
2022-10-22T05:22:37.402Z,28.31
2022-10-22T05:25:05.767Z,28.34
2022-10-22T05:27:33.797Z,28.37
2022-10-22T05:30:01.817Z,28.39
2022-10-22T05:32:29.655Z,28.40
2022-10-22T05:34:57.852Z,28.44
2022-10-22T05:37:25.828Z,28.41
2022-10-22T05:40:01.809Z,28.41
2022-10-22T05:42:40.986Z,28.44
2022-10-22T05:45:09.586Z,28.41
2022-10-22T05:47:37.465Z,28.39
2022-10-22T05:50:05.981Z,28.42
2022-10-22T05:52:33.944Z,28.44
2022-10-22T05:55:02.132Z,28.40
2022-10-22T05:57:30.099Z,28.33
2022-10-22T05:59:58.079Z,28.32
2022-10-22T06:02:26.037Z,28.34
2022-10-22T06:04:54.013Z,28.37
2022-10-22T06:07:23.216Z,28.35
2022-10-22T06:09:51.287Z,28.30
2022-10-22T06:12:19.918Z,28.27
2022-10-22T06:14:47.848Z,28.23
2022-10-22T06:17:16.054Z,28.22
2022-10-22T06:19:43.994Z,28.21
2022-10-22T06:22:11.907Z,28.20
2022-10-22T06:24:41.639Z,28.20
2022-10-22T06:27:13.013Z,28.24
2022-10-22T06:29:41.188Z,28.24
2022-10-22T06:32:09.140Z,28.22
2022-10-22T06:34:37.263Z,28.22
2022-10-22T06:37:05.208Z,28.22
2022-10-22T06:39:33.169Z,28.22
2022-10-22T06:42:01.503Z,28.20
2022-10-22T06:44:29.479Z,28.23
2022-10-22T06:46:57.466Z,28.25
2022-10-22T06:49:25.471Z,28.28
2022-10-22T06:51:54.520Z,28.27
2022-10-22T06:54:23.535Z,28.30
2022-10-22T06:56:51.711Z,28.28
2022-10-22T06:59:19.642Z,28.35
2022-10-22T07:01:47.687Z,28.27
2022-10-22T07:04:15.739Z,28.24
2022-10-22T07:06:43.721Z,28.24
2022-10-22T07:09:11.883Z,28.25
2022-10-22T07:11:45.729Z,28.26
2022-10-22T07:14:14.944Z,28.25
2022-10-22T07:16:42.899Z,28.31
2022-10-22T07:19:10.964Z,28.32
2022-10-22T07:21:39.044Z,28.31
2022-10-22T07:24:07.258Z,28.35
2022-10-22T07:26:35.444Z,28.40
2022-10-22T07:29:03.856Z,28.43
2022-10-22T07:31:31.986Z,28.37
2022-10-22T07:34:00.131Z,28.40
2022-10-22T07:36:28.111Z,28.47
2022-10-22T07:38:58.214Z,28.56
2022-10-22T07:41:28.150Z,28.59
2022-10-22T07:43:57.493Z,28.62
2022-10-22T07:46:27.004Z,28.72
2022-10-22T07:48:55.229Z,28.73
2022-10-22T07:51:23.196Z,28.72
2022-10-22T07:53:51.146Z,28.83
2022-10-22T07:56:19.549Z,28.82
2022-10-22T07:58:47.637Z,28.83
2022-10-22T08:01:15.632Z,28.86
2022-10-22T08:03:44.571Z,28.91
2022-10-22T08:06:15.975Z,28.92
2022-10-22T08:08:44.777Z,28.95
2022-10-22T08:11:13.126Z,29.09
2022-10-22T08:13:45.044Z,29.08
2022-10-22T08:16:14.831Z,29.08
2022-10-22T08:18:43.006Z,29.10
2022-10-22T08:21:12.594Z,29.13
2022-10-22T08:23:40.665Z,29.17
2022-10-22T08:26:09.279Z,29.20
2022-10-22T08:28:37.865Z,29.26
2022-10-22T08:31:07.739Z,29.27
2022-10-22T08:33:36.026Z,29.35
2022-10-22T08:36:05.498Z,29.46
2022-10-22T08:38:33.612Z,29.50
2022-10-22T08:41:12.175Z,29.59
2022-10-22T08:44:17.042Z,29.72
2022-10-22T08:47:24.366Z,29.90
2022-10-22T08:49:54.718Z,29.99
2022-10-22T08:52:22.670Z,30.11
2022-10-22T08:54:58.976Z,30.16
2022-10-22T08:58:11.834Z,30.24
2022-10-22T09:00:52.572Z,30.34
2022-10-22T09:03:56.943Z,30.35
2022-10-22T09:06:28.465Z,30.50
2022-10-22T09:08:58.713Z,30.55
2022-10-22T09:11:28.815Z,30.65
2022-10-22T09:13:57.604Z,30.70
2022-10-22T09:16:53.044Z,30.77
2022-10-22T09:19:36.079Z,30.89
2022-10-22T09:22:18.864Z,31.03
2022-10-22T09:24:49.397Z,31.10
2022-10-22T09:27:26.448Z,31.21
2022-10-22T09:29:54.558Z,31.22
2022-10-22T09:32:23.434Z,31.26
2022-10-22T09:34:57.203Z,31.39
2022-10-22T09:37:28.462Z,31.47
2022-10-22T09:39:57.810Z,31.53
2022-10-22T09:42:25.884Z,31.55
2022-10-22T09:44:57.978Z,31.63
2022-10-22T09:48:00.927Z,31.74
2022-10-22T09:50:43.099Z,31.81
2022-10-22T09:53:28.932Z,31.82
2022-10-22T09:56:00.900Z,31.86
2022-10-22T09:58:28.818Z,31.98
2022-10-22T10:00:59.266Z,31.99
2022-10-22T10:03:32.205Z,32.04
2022-10-22T10:06:04.978Z,32.07
2022-10-22T10:08:34.798Z,32.12
2022-10-22T10:11:11.863Z,32.15
2022-10-22T10:13:39.795Z,32.17
2022-10-22T10:16:40.732Z,32.19
2022-10-22T10:19:15.256Z,32.22
2022-10-22T10:22:29.753Z,32.29
2022-10-22T10:25:39.619Z,32.32
2022-10-22T10:28:39.826Z,32.36
2022-10-22T10:31:19.886Z,32.28
2022-10-22T10:33:53.971Z,32.20
2022-10-22T10:36:55.120Z,32.30
2022-10-22T10:39:48.879Z,32.39
2022-10-22T10:42:41.955Z,32.43
2022-10-22T10:45:50.333Z,32.61
2022-10-22T10:48:38.864Z,32.69
2022-10-22T10:51:30.271Z,32.66
2022-10-22T10:53:58.454Z,32.66
2022-10-22T10:56:35.609Z,32.72
2022-10-22T10:59:18.138Z,32.76
2022-10-22T11:01:51.878Z,32.79
2022-10-22T11:04:47.755Z,32.81
2022-10-22T11:07:34.096Z,32.85
2022-10-22T11:10:14.178Z,32.90
2022-10-22T11:12:45.917Z,33.11
2022-10-22T11:15:35.750Z,33.21
2022-10-22T11:18:20.311Z,33.32
2022-10-22T11:21:10.354Z,33.32
2022-10-22T11:23:48.505Z,33.42
2022-10-22T11:26:34.444Z,33.47
2022-10-22T11:29:06.106Z,33.53
2022-10-22T11:31:34.587Z,33.59
2022-10-22T11:34:31.992Z,33.64
2022-10-22T11:37:00.108Z,33.66
2022-10-22T11:39:46.507Z,33.88
2022-10-22T11:42:21.138Z,33.87
2022-10-22T11:44:59.975Z,33.77
2022-10-22T11:47:33.852Z,33.83
2022-10-22T11:50:19.252Z,33.80
2022-10-22T11:53:17.295Z,33.75
2022-10-22T11:55:47.716Z,33.76
2022-10-22T11:58:37.389Z,33.79
2022-10-22T12:01:08.434Z,33.83
2022-10-22T12:03:59.222Z,33.87
2022-10-22T12:06:28.224Z,33.93
2022-10-22T12:09:03.065Z,33.95
2022-10-22T12:11:39.811Z,33.97
2022-10-22T12:14:26.323Z,34.09
2022-10-22T12:17:02.889Z,34.21
2022-10-22T12:20:11.399Z,34.18
2022-10-22T12:22:40.386Z,34.35
2022-10-22T12:25:34.789Z,34.50
2022-10-22T12:28:04.584Z,34.57
2022-10-22T12:30:36.848Z,34.60
2022-10-22T12:33:07.973Z,34.66
2022-10-22T12:35:44.372Z,34.78
2022-10-22T12:38:23.692Z,34.83
2022-10-22T12:40:56.826Z,34.73
2022-10-22T12:43:28.130Z,34.75
2022-10-22T12:45:59.017Z,34.79
2022-10-22T12:48:32.642Z,34.79
2022-10-22T12:51:04.335Z,34.76
2022-10-22T12:53:35.786Z,34.87
2022-10-22T12:56:12.493Z,34.91
2022-10-22T12:58:52.096Z,34.88
2022-10-22T13:01:20.274Z,34.74
2022-10-22T13:03:51.396Z,34.61
2022-10-22T13:06:19.297Z,34.56
2022-10-22T13:08:59.750Z,34.49
2022-10-22T13:11:42.840Z,34.52
2022-10-22T13:14:21.325Z,34.55
2022-10-22T13:17:12.799Z,34.55
2022-10-22T13:19:52.948Z,34.55
2022-10-22T13:22:25.420Z,34.53
2022-10-22T13:24:53.957Z,34.45
2022-10-22T13:27:23.877Z,34.40
2022-10-22T13:29:51.869Z,34.44
2022-10-22T13:32:40.440Z,34.37
2022-10-22T13:35:16.192Z,34.30
2022-10-22T13:37:44.358Z,34.25
2022-10-22T13:40:13.570Z,34.22
2022-10-22T13:42:41.739Z,34.17
2022-10-22T13:45:10.660Z,33.99
2022-10-22T13:47:38.723Z,33.99
2022-10-22T13:50:18.194Z,33.87
2022-10-22T13:52:50.329Z,33.81
2022-10-22T13:55:23.826Z,33.80
2022-10-22T13:57:55.588Z,33.90
2022-10-22T14:00:26.496Z,33.89
2022-10-22T14:02:58.451Z,33.85
2022-10-22T14:05:26.770Z,33.90
2022-10-22T14:07:54.750Z,33.74
2022-10-22T14:10:24.913Z,33.54
2022-10-22T14:12:53.690Z,33.55
2022-10-22T14:15:24.090Z,33.55
2022-10-22T14:17:56.881Z,33.57
2022-10-22T14:20:31.193Z,33.58
2022-10-22T14:23:27.305Z,33.51
2022-10-22T14:25:56.668Z,33.45
2022-10-22T14:28:25.014Z,33.40
2022-10-22T14:30:55.844Z,33.39
2022-10-22T14:33:30.554Z,33.43
2022-10-22T14:36:00.808Z,33.51
2022-10-22T14:38:29.687Z,33.52
2022-10-22T14:40:59.642Z,33.57
2022-10-22T14:43:30.235Z,33.57
2022-10-22T14:45:58.613Z,33.59
2022-10-22T14:48:26.691Z,33.60
2022-10-22T14:50:55.178Z,33.60
2022-10-22T14:53:23.251Z,33.60
2022-10-22T14:55:51.225Z,33.64
2022-10-22T14:58:19.303Z,33.60
2022-10-22T15:00:47.305Z,33.60
2022-10-22T15:03:15.351Z,33.60
2022-10-22T15:05:45.027Z,33.50
2022-10-22T15:08:14.784Z,33.49
2022-10-22T15:10:43.059Z,33.47
2022-10-22T15:13:11.404Z,33.39
2022-10-22T15:15:42.486Z,33.45
2022-10-22T15:18:10.404Z,33.45
2022-10-22T15:20:38.451Z,33.45
2022-10-22T15:23:06.315Z,33.44
2022-10-22T15:25:34.384Z,33.45
2022-10-22T15:28:09.442Z,33.44
2022-10-22T15:30:38.031Z,33.46
2022-10-22T15:33:06.590Z,33.42
2022-10-22T15:35:34.671Z,33.41
2022-10-22T15:38:02.945Z,33.37
2022-10-22T15:40:31.330Z,33.32
2022-10-22T15:42:59.406Z,33.27
2022-10-22T15:45:27.275Z,33.26
2022-10-22T15:47:55.353Z,33.24
2022-10-22T15:50:23.327Z,33.27
2022-10-22T15:52:51.230Z,33.32
2022-10-22T15:55:19.274Z,33.21
2022-10-22T15:57:47.559Z,33.10
2022-10-22T16:00:15.944Z,32.98
2022-10-22T16:02:44.524Z,32.95
2022-10-22T16:05:12.606Z,32.89
2022-10-22T16:07:40.823Z,32.82
2022-10-22T16:10:09.684Z,32.87
2022-10-22T16:12:37.750Z,32.90
2022-10-22T16:15:06.377Z,32.95
2022-10-22T16:17:34.319Z,32.95
2022-10-22T16:20:02.490Z,33.00
2022-10-22T16:22:30.520Z,33.03
2022-10-22T16:24:58.590Z,33.04
2022-10-22T16:27:26.517Z,33.01
2022-10-22T16:29:54.486Z,33.00
2022-10-22T16:32:22.871Z,33.00
2022-10-22T16:34:50.688Z,33.02
2022-10-22T16:37:18.721Z,33.01
2022-10-22T16:39:46.794Z,32.94
2022-10-22T16:42:14.765Z,32.91
2022-10-22T16:44:43.050Z,32.90
2022-10-22T16:47:11.122Z,32.92
2022-10-22T16:49:39.197Z,32.81
2022-10-22T16:52:07.581Z,32.69
2022-10-22T16:54:35.558Z,32.32
2022-10-22T16:57:03.527Z,32.27
2022-10-22T16:59:31.501Z,32.23
2022-10-22T17:01:59.617Z,32.18
2022-10-22T17:04:27.652Z,32.14
2022-10-22T17:06:55.956Z,32.14
2022-10-22T17:09:24.322Z,32.11
2022-10-22T17:11:52.699Z,32.13
2022-10-22T17:14:21.490Z,32.14
2022-10-22T17:16:49.568Z,32.10
2022-10-22T17:19:17.849Z,32.13
2022-10-22T17:21:46.518Z,32.14
2022-10-22T17:24:15.233Z,32.15
2022-10-22T17:26:43.713Z,32.09
2022-10-22T17:29:13.328Z,32.03
2022-10-22T17:31:41.813Z,32.04
2022-10-22T17:34:15.311Z,32.15
2022-10-22T17:36:44.358Z,32.19
2022-10-22T17:39:17.437Z,32.15
2022-10-22T17:41:45.533Z,32.13
2022-10-22T17:44:13.754Z,32.12
2022-10-22T17:46:41.629Z,32.18
2022-10-22T17:49:19.248Z,32.33
2022-10-22T17:51:47.910Z,32.46
2022-10-22T17:54:16.089Z,32.42
2022-10-22T17:56:44.161Z,32.32
2022-10-22T17:59:14.837Z,32.43
2022-10-22T18:01:43.122Z,32.47
2022-10-22T18:04:15.376Z,32.39
2022-10-22T18:06:43.363Z,32.33
2022-10-22T18:09:14.434Z,32.28
2022-10-22T18:11:45.481Z,32.13
2022-10-22T18:14:13.489Z,32.04
2022-10-22T18:16:41.461Z,31.93
2022-10-22T18:19:10.150Z,31.95
2022-10-22T18:21:38.132Z,31.92
2022-10-22T18:24:06.609Z,31.76
2022-10-22T18:26:34.688Z,31.71
2022-10-22T18:29:02.862Z,31.64
2022-10-22T18:31:30.836Z,31.63
2022-10-22T18:33:59.326Z,31.58
2022-10-22T18:36:28.215Z,31.57
2022-10-22T18:38:58.803Z,31.64
2022-10-22T18:41:28.563Z,31.66
2022-10-22T18:43:59.301Z,31.55
2022-10-22T18:46:28.921Z,31.52
2022-10-22T18:48:58.535Z,31.58
2022-10-22T18:51:29.056Z,31.57
2022-10-22T18:54:05.310Z,31.53
2022-10-22T18:56:40.356Z,31.45
2022-10-22T18:59:23.270Z,31.46
2022-10-22T19:01:56.561Z,31.52
2022-10-22T19:04:24.426Z,31.47
2022-10-22T19:06:52.509Z,31.48
2022-10-22T19:09:24.271Z,31.48
2022-10-22T19:11:52.347Z,31.45
2022-10-22T19:14:20.318Z,31.48
2022-10-22T19:16:49.625Z,31.56
2022-10-22T19:19:19.722Z,31.46
2022-10-22T19:21:48.909Z,31.47
2022-10-22T19:24:19.090Z,31.50
2022-10-22T19:26:48.581Z,31.54
2022-10-22T19:29:18.986Z,31.61
2022-10-22T19:31:47.700Z,31.61
2022-10-22T19:34:16.079Z,31.58
2022-10-22T19:36:43.952Z,31.61
2022-10-22T19:39:15.656Z,31.56
2022-10-22T19:41:43.888Z,31.55
2022-10-22T19:44:11.877Z,31.59
2022-10-22T19:46:39.836Z,31.60
2022-10-22T19:49:07.813Z,31.45
2022-10-22T19:51:35.774Z,31.39
2022-10-22T19:54:06.323Z,31.39
2022-10-22T19:56:36.212Z,31.40
2022-10-22T19:59:05.746Z,31.27
2022-10-22T20:01:33.768Z,31.32
2022-10-22T20:04:01.909Z,31.30
2022-10-22T20:06:30.994Z,31.32
2022-10-22T20:08:58.912Z,31.31
2022-10-22T20:11:30.038Z,31.31
2022-10-22T20:13:58.908Z,31.34
2022-10-22T20:16:29.342Z,31.33
2022-10-22T20:19:02.631Z,31.26
2022-10-22T20:21:31.257Z,31.22
2022-10-22T20:24:00.070Z,31.25
2022-10-22T20:26:28.806Z,31.37
2022-10-22T20:28:58.010Z,31.36
2022-10-22T20:31:28.934Z,31.42
2022-10-22T20:33:58.465Z,31.50
2022-10-22T20:36:28.303Z,31.55
2022-10-22T20:39:02.488Z,31.69
2022-10-22T20:41:30.473Z,31.70
2022-10-22T20:43:58.419Z,31.68
2022-10-22T20:46:35.319Z,31.65
2022-10-22T20:49:09.635Z,31.59
2022-10-22T20:51:38.217Z,31.61
2022-10-22T20:54:07.691Z,31.58
2022-10-22T20:56:38.193Z,31.50
2022-10-22T20:59:07.438Z,31.48
2022-10-22T21:02:02.245Z,31.51
2022-10-22T21:04:30.763Z,31.42
2022-10-22T21:06:58.705Z,31.32
2022-10-22T21:09:27.122Z,31.33
2022-10-22T21:11:55.203Z,31.38
2022-10-22T21:14:23.341Z,31.45
2022-10-22T21:16:51.786Z,31.44
2022-10-22T21:19:21.027Z,31.38
2022-10-22T21:21:49.732Z,31.40
2022-10-22T21:24:18.203Z,31.35
2022-10-22T21:26:46.095Z,31.27
2022-10-22T21:29:14.762Z,31.25
2022-10-22T21:31:43.945Z,31.28
2022-10-22T21:34:13.019Z,31.29
2022-10-22T21:36:41.519Z,31.29
2022-10-22T21:39:09.656Z,31.25
2022-10-22T21:41:38.013Z,31.23
2022-10-22T21:44:06.594Z,31.23
2022-10-22T21:46:35.276Z,31.14
2022-10-22T21:49:04.351Z,31.19
2022-10-22T21:51:34.610Z,31.12
2022-10-22T21:54:02.707Z,31.12
2022-10-22T21:56:35.270Z,31.14
2022-10-22T21:59:05.572Z,31.03
2022-10-22T22:01:33.918Z,31.07
2022-10-22T22:04:02.771Z,31.08
2022-10-22T22:06:33.445Z,31.08
2022-10-22T22:09:04.139Z,31.02
2022-10-22T22:11:32.925Z,30.91
2022-10-22T22:14:00.802Z,30.93
2022-10-22T22:16:32.795Z,30.93
2022-10-22T22:21:40.276Z,30.79
2022-10-22T22:24:10.922Z,30.74
2022-10-22T22:26:40.071Z,30.75
2022-10-22T22:29:08.083Z,30.76
2022-10-22T22:31:37.026Z,30.79
2022-10-22T22:34:08.406Z,30.72
2022-10-22T22:36:40.401Z,30.65
2022-10-22T22:39:12.672Z,30.74
2022-10-22T22:41:41.607Z,30.72
2022-10-22T22:44:10.154Z,30.71
2022-10-22T22:46:38.434Z,30.72
2022-10-22T22:49:06.923Z,30.69
2022-10-22T22:51:35.140Z,30.66
2022-10-22T22:54:03.482Z,30.66
2022-10-22T22:56:32.890Z,30.68
2022-10-22T22:59:01.741Z,30.67
2022-10-22T23:01:39.716Z,30.59
2022-10-22T23:04:12.710Z,30.57
2022-10-22T23:06:40.953Z,30.51
2022-10-22T23:09:11.884Z,30.51
2022-10-22T23:11:42.016Z,30.54
2022-10-22T23:14:12.974Z,30.53
2022-10-22T23:16:43.546Z,30.52
2022-10-22T23:19:15.902Z,30.49
2022-10-22T23:21:50.180Z,30.51
2022-10-22T23:24:21.621Z,30.50
2022-10-22T23:26:52.167Z,30.46
2022-10-22T23:29:25.503Z,30.52
2022-10-22T23:31:54.253Z,30.53
2022-10-22T23:34:25.195Z,30.48
2022-10-22T23:36:54.791Z,30.49
2022-10-22T23:39:26.199Z,30.52
2022-10-22T23:41:54.846Z,30.53
2022-10-22T23:44:24.251Z,30.57
2022-10-22T23:46:52.532Z,30.64
2022-10-22T23:49:20.548Z,30.66
2022-10-22T23:51:48.481Z,30.56
2022-10-22T23:54:17.797Z,30.58
2022-10-22T23:56:45.858Z,30.59
